地図

経路データ

SID SEASON NUMBER BASIN SUBBASIN NAME ISO_TIME NATURE LAT LON WMO_WIND WMO_PRES WMO_AGENCY TRACK_TYPE DIST2LAND LANDFALL IFLAG USA_AGENCY USA_ATCF_ID USA_LAT USA_LON USA_RECORD USA_STATUS USA_WIND USA_PRES USA_SSHS USA_R34_NE USA_R34_SE USA_R34_SW USA_R34_NW USA_R50_NE USA_R50_SE USA_R50_SW USA_R50_NW USA_R64_NE USA_R64_SE USA_R64_SW USA_R64_NW USA_POCI USA_ROCI USA_RMW USA_EYE TOKYO_LAT TOKYO_LON TOKYO_GRADE TOKYO_WIND TOKYO_PRES TOKYO_R50_DIR TOKYO_R50_LONG TOKYO_R50_SHORT TOKYO_R30_DIR TOKYO_R30_LONG TOKYO_R30_SHORT TOKYO_LAND CMA_LAT CMA_LON CMA_CAT CMA_WIND CMA_PRES HKO_LAT HKO_LON HKO_CAT HKO_WIND HKO_PRES NEWDELHI_LAT NEWDELHI_LON NEWDELHI_GRADE NEWDELHI_WIND NEWDELHI_PRES NEWDELHI_CI NEWDELHI_DP NEWDELHI_POCI REUNION_LAT REUNION_LON REUNION_TYPE REUNION_WIND REUNION_PRES REUNION_TNUM REUNION_CI REUNION_RMW REUNION_R34_NE REUNION_R34_SE REUNION_R34_SW REUNION_R34_NW REUNION_R50_NE REUNION_R50_SE REUNION_R50_SW REUNION_R50_NW REUNION_R64_NE REUNION_R64_SE REUNION_R64_SW REUNION_R64_NW BOM_LAT BOM_LON BOM_TYPE BOM_WIND BOM_PRES BOM_TNUM BOM_CI BOM_RMW BOM_R34_NE BOM_R34_SE BOM_R34_SW BOM_R34_NW BOM_R50_NE BOM_R50_SE BOM_R50_SW BOM_R50_NW BOM_R64_NE BOM_R64_SE BOM_R64_SW BOM_R64_NW BOM_ROCI BOM_POCI BOM_EYE BOM_POS_METHOD BOM_PRES_METHOD NADI_LAT NADI_LON NADI_CAT NADI_WIND NADI_PRES WELLINGTON_LAT WELLINGTON_LON WELLINGTON_WIND WELLINGTON_PRES DS824_LAT DS824_LON DS824_STAGE DS824_WIND DS824_PRES TD9636_LAT TD9636_LON TD9636_STAGE TD9636_WIND TD9636_PRES TD9635_LAT TD9635_LON TD9635_WIND TD9635_PRES TD9635_ROCI NEUMANN_LAT NEUMANN_LON NEUMANN_CLASS NEUMANN_WIND NEUMANN_PRES MLC_LAT MLC_LON MLC_CLASS MLC_WIND MLC_PRES USA_GUST BOM_GUST BOM_GUST_PER REUNION_GUST REUNION_GUST_PER USA_SEAHGT USA_SEARAD_NE USA_SEARAD_SE USA_SEARAD_SW USA_SEARAD_NW STORM_SPEED STORM_DIR
1872233N14334 1872 17 NA NA NOT_NAMED 1872-08-19 12:00:00 TS 13.5000 -26.5000 main 980 980 _____________O -1 13.5000 -26.5000 TD 30 11 287
1872233N14334 1872 17 NA NA NOT_NAMED 1872-08-19 15:00:00 TS 13.6627 -27.0373 main 1030 1030 _____________P -1 13.6627 -27.0373 TD 30 11 286
1872233N14334 1872 17 NA NA NOT_NAMED 1872-08-19 18:00:00 TS 13.8000 -27.6000 main 1093 1093 _____________O -1 13.8000 -27.6000 TD 30 12 282
1872233N14334 1872 17 NA NA NOT_NAMED 1872-08-19 21:00:00 TS 13.9000 -28.2001 main 1156 1156 _____________P -1 13.9000 -28.2001 TD 32 15 282
1872233N14334 1872 17 NA NA NOT_NAMED 1872-08-20 00:00:00 TS 14.1000 -29.1000 40 hurdat_atl main 1251 1251 O____________O hurdat_atl AL021872 14.3000 -29.7000 TS 40 0 14.0000 -28.8000 TS 35 15 283
1872233N14334 1872 17 NA NA NOT_NAMED 1872-08-20 03:00:00 TS 14.2513 -29.7137 main 1314 1314 P____________P AL021872 14.3527 -30.0699 TS 40 0 14.1498 -29.3575 TS 37 11 284
1872233N14334 1872 17 NA NA NOT_NAMED 1872-08-20 06:00:00 TS 14.3600 -30.2000 40 hurdat_atl main 1367 1367 O____________O hurdat_atl AL021872 14.4000 -30.4000 TS 40 0 14.3000 -29.9000 TS 40 9 282
1872233N14334 1872 17 NA NA NOT_NAMED 1872-08-20 09:00:00 TS 14.4282 -30.6018 main 1410 1410 P____________P AL021872 14.4423 -30.6776 TS 40 0 14.3999 -30.4502 TS 42 8 280
1872233N14334 1872 17 NA NA NOT_NAMED 1872-08-20 12:00:00 TS 14.5000 -31.0000 40 hurdat_atl main 1453 1453 O____________O hurdat_atl AL021872 14.5000 -31.0000 TS 40 0 14.5000 -31.0000 TS 45 9 282
1872233N14334 1872 17 NA NA NOT_NAMED 1872-08-20 15:00:00 TS 14.6065 -31.4767 main 1506 1506 P____________P AL021872 14.5848 -31.4401 TS 40 0 14.6499 -31.5500 TS 47 10 283
1872233N14334 1872 17 NA NA NOT_NAMED 1872-08-20 18:00:00 TS 14.7333 -32.0333 40 hurdat_atl main 1560 1560 O____________O hurdat_atl AL021872 14.7000 -32.0000 TS 40 0 14.8000 -32.1000 TS 50 12 283
1872233N14334 1872 17 NA NA NOT_NAMED 1872-08-20 21:00:00 TS 14.8616 -32.6609 main 1634 1634 P____________P AL021872 14.8425 -32.6700 TS 40 0 14.8998 -32.6427 TS 52 13 282
1872233N14334 1872 17 NA NA NOT_NAMED 1872-08-21 00:00:00 TS 15.0000 -33.3333 40 hurdat_atl main 1698 1698 O____________O hurdat_atl AL021872 15.0000 -33.4000 TS 40 0 15.0000 -33.2000 TS 55 13 283
1872233N14334 1872 17 NA NA NOT_NAMED 1872-08-21 03:00:00 TS 15.1600 -34.0199 main 1773 1773 P____________P AL021872 15.1650 -34.1299 TS 40 0 15.1500 -33.7999 TS 57 13 283
1872233N14334 1872 17 NA NA NOT_NAMED 1872-08-21 06:00:00 TS 15.3000 -34.6667 40 hurdat_atl main 1848 1848 O____________O hurdat_atl AL021872 15.3000 -34.8000 TS 40 0 15.3000 -34.4000 TS 60 12 280
1872233N14334 1872 17 NA NA NOT_NAMED 1872-08-21 09:00:00 TS 15.3714 -35.2060 main 1902 1902 P____________P AL021872 15.3572 -35.3302 TS 40 0 15.3998 -34.9577 TS 60 10 278
1872233N14334 1872 17 NA NA NOT_NAMED 1872-08-21 12:00:00 TS 15.4333 -35.7000 40 hurdat_atl main 1956 1956 O____________O hurdat_atl AL021872 15.4000 -35.8000 TS 40 0 15.5000 -35.5000 TS 60 10 280
1872233N14334 1872 17 NA NA NOT_NAMED 1872-08-21 15:00:00 TS 15.5399 -36.2142 main 2009 2009 P____________P AL021872 15.4849 -36.3001 TS 40 0 15.6498 -36.0425 TS 65 10 283
1872233N14334 1872 17 NA NA NOT_NAMED 1872-08-21 18:00:00 TS 15.6667 -36.7333 40 hurdat_atl main 2044 2009 O____________O hurdat_atl AL021872 15.6000 -36.8000 TS 40 0 15.8000 -36.6000 HU 70 10 284
1872233N14334 1872 17 NA NA NOT_NAMED 1872-08-21 21:00:00 TS 15.7999 -37.2617 main 2000 1966 P____________P AL021872 15.7498 -37.2925 TS 45 0 15.9000 -37.2002 HU 72 11 285
1872233N14334 1872 17 NA NA NOT_NAMED 1872-08-22 00:00:00 TS 15.9333 -37.8000 50 hurdat_atl main 1966 1933 O____________O hurdat_atl AL021872 15.9000 -37.8000 TS 50 0 16.0000 -37.8000 HU 75 11 284
1872233N14334 1872 17 NA NA NOT_NAMED 1872-08-22 03:00:00 TS 16.0598 -38.3375 main 1940 1900 P____________P AL021872 16.0148 -38.3276 TS 50 0 16.1498 -38.3575 HU 77 11 282
1872233N14334 1872 17 NA NA NOT_NAMED 1872-08-22 06:00:00 TS 16.1667 -38.9000 50 hurdat_atl main 1900 1854 O____________O hurdat_atl AL021872 16.1000 -38.9000 TS 50 0 16.3000 -38.9000 HU 80 11 279
1872233N14334 1872 17 NA NA NOT_NAMED 1872-08-22 09:00:00 TS 16.2283 -39.5094 main 1854 1817 P____________P AL021872 16.1425 -39.5427 TS 50 0 16.3998 -39.4427 HU 82 12 276
1872233N14334 1872 17 NA NA NOT_NAMED 1872-08-22 12:00:00 TS 16.3000 -40.1333 50 hurdat_atl main 1817 1782 O____________O hurdat_atl AL021872 16.2000 -40.2000 TS 50 0 16.5000 -40.0000 HU 85 12 280
1872233N14334 1872 17 NA NA NOT_NAMED 1872-08-22 15:00:00 TS 16.4425 -40.7582 main 1775 1756 P____________P AL021872 16.3425 -40.8373 TS 50 0 16.6425 -40.6000 HU 87 12 285
1872233N14334 1872 17 NA NA NOT_NAMED 1872-08-22 18:00:00 TS 16.6000 -41.3333 50 hurdat_atl main 1757 1733 O____________O hurdat_atl AL021872 16.5000 -41.4000 TS 50 0 16.8000 -41.2000 HU 90 10 286
1872233N14334 1872 17 NA NA NOT_NAMED 1872-08-22 21:00:00 TS 16.7162 -41.7811 main 1733 1716 P____________P AL021872 16.5995 -41.7928 TS 55 0 16.9498 -41.7576 HU 90 9 285
1872233N14334 1872 17 NA NA NOT_NAMED 1872-08-23 00:00:00 TS 16.8333 -42.2333 60 hurdat_atl main 1716 1694 O____________O hurdat_atl AL021872 16.7000 -42.2000 TS 60 0 17.1000 -42.3000 HU 90 10 285
1872233N14334 1872 17 NA NA NOT_NAMED 1872-08-23 03:00:00 TS 16.9859 -42.8299 main 1697 1667 P____________P AL021872 16.8502 -42.8199 TS 60 0 17.2574 -42.8500 HU 92 12 284
1872233N14334 1872 17 NA NA NOT_NAMED 1872-08-23 06:00:00 TS 17.1333 -43.4667 60 hurdat_atl main 1661 1638 O____________O hurdat_atl AL021872 17.0000 -43.5000 TS 60 0 17.4000 -43.4000 HU 95 12 281
1872233N14334 1872 17 NA NA NOT_NAMED 1872-08-23 09:00:00 TS 17.2233 -44.0727 main 1631 1610 P____________P AL021872 17.0850 -44.1378 TS 60 0 17.4998 -43.9427 HU 95 11 280
1872233N14334 1872 17 NA NA NOT_NAMED 1872-08-23 12:00:00 TS 17.3333 -44.6333 60 hurdat_atl main 1610 1601 O____________O hurdat_atl AL021872 17.2000 -44.7000 TS 60 0 17.6000 -44.5000 HU 95 10 288
1872233N14334 1872 17 NA NA NOT_NAMED 1872-08-23 15:00:00 TS 17.5396 -45.0975 main 1601 1598 P____________P AL021872 17.4345 -45.1001 TS 60 0 17.7499 -45.0924 HU 97 10 296
1872233N14334 1872 17 NA NA NOT_NAMED 1872-08-23 18:00:00 TS 17.7667 -45.5667 60 hurdat_atl main 1603 1587 O____________O hurdat_atl AL021872 17.7000 -45.5000 TS 60 0 17.9000 -45.7000 MH 100 11 292
1872233N14334 1872 17 NA NA NOT_NAMED 1872-08-23 21:00:00 TS 17.9384 -46.1593 main 1583 1573 P____________P AL021872 17.9077 -46.0850 TS 65 1 17.9999 -46.3077 MH 102 12 286
1872233N14334 1872 17 NA NA NOT_NAMED 1872-08-24 00:00:00 TS 18.1000 -46.7667 70 hurdat_atl main 1574 1567 O____________O hurdat_atl AL021872 18.1000 -46.7000 HU 70 1 18.1000 -46.9000 MH 105 11 288
1872233N14334 1872 17 NA NA NOT_NAMED 1872-08-24 03:00:00 TS 18.2780 -47.2835 main 1573 1565 P____________P AL021872 18.2921 -47.2003 HU 70 1 18.2497 -47.4500 MH 107 10 290
1872233N14334 1872 17 NA NA NOT_NAMED 1872-08-24 06:00:00 TS 18.4667 -47.8000 70 hurdat_atl main 1572 1559 O____________O hurdat_atl AL021872 18.5000 -47.7000 HU 70 1 18.4000 -48.0000 MH 110 11 290
1872233N14334 1872 17 NA NA NOT_NAMED 1872-08-24 09:00:00 TS 18.6668 -48.4100 main 1565 1554 P____________P AL021872 18.7501 -48.3074 HU 70 1 18.5001 -48.6152 MH 110 12 289
1872233N14334 1872 17 NA NA NOT_NAMED 1872-08-24 12:00:00 TS 18.8667 -49.0000 70 hurdat_atl main 1560 1545 O____________O hurdat_atl AL021872 19.0000 -48.9000 HU 70 1 18.6000 -49.2000 MH 110 11 291
1872233N14334 1872 17 NA NA NOT_NAMED 1872-08-24 15:00:00 TS 19.0597 -49.4776 main 1552 1524 P____________P AL021872 19.2148 -49.3876 HU 70 1 18.7496 -49.6575 MH 112 9 293
1872233N14334 1872 17 NA NA NOT_NAMED 1872-08-24 18:00:00 TS 19.2333 -49.9000 70 hurdat_atl main 1524 1505 O____________O hurdat_atl AL021872 19.4000 -49.8000 HU 70 1 18.9000 -50.1000 MH 115 8 292
1872233N14334 1872 17 NA NA NOT_NAMED 1872-08-24 21:00:00 TS 19.3715 -50.3094 main 1505 1480 P____________P AL021872 19.5572 -50.1502 HU 70 1 18.9999 -50.6277 MH 117 8 289
1872233N14334 1872 17 NA NA NOT_NAMED 1872-08-25 00:00:00 TS 19.5000 -50.7333 70 hurdat_atl main 1480 1448 O____________O hurdat_atl AL021872 19.7000 -50.5000 HU 70 1 19.1000 -51.2000 MH 120 9 287
1872233N14334 1872 17 NA NA NOT_NAMED 1872-08-25 03:00:00 TS 19.6374 -51.2135 main 1448 1424 P____________P AL021872 19.8349 -50.9202 HU 70 1 19.2424 -51.8000 MH 122 10 288
1872233N14334 1872 17 NA NA NOT_NAMED 1872-08-25 06:00:00 TS 19.8000 -51.7333 70 hurdat_atl main 1425 1396 O____________O hurdat_atl AL021872 20.0000 -51.4000 HU 70 1 19.4000 -52.4000 MH 125 11 289
1872233N14334 1872 17 NA NA NOT_NAMED 1872-08-25 09:00:00 TS 20.0018 -52.3107 main 1397 1357 P____________P AL021872 20.2427 -51.9573 HU 70 1 19.5202 -53.0176 MH 127 11 293
1872233N14334 1872 17 NA NA NOT_NAMED 1872-08-25 12:00:00 TS 20.2333 -52.8333 70 hurdat_atl main 1357 1320 O____________O hurdat_atl AL021872 20.5000 -52.5000 HU 70 1 19.7000 -53.5000 MH 130 928 9 301
1872233N14334 1872 17 NA NA NOT_NAMED 1872-08-25 15:00:00 TS 20.4830 -53.1777 main 1320 1301 P____________P AL021872 20.7147 -52.9152 HU 70 1 20.0197 -53.7028 MH 130 8 310
1872233N14334 1872 17 NA NA NOT_NAMED 1872-08-25 18:00:00 TS 20.7333 -53.4667 70 hurdat_atl main 1293 1266 O____________O hurdat_atl AL021872 20.9000 -53.3000 HU 70 1 20.4000 -53.8000 MH 130 8 307
1872233N14334 1872 17 NA NA NOT_NAMED 1872-08-25 21:00:00 TS 20.9500 -53.8384 main 1268 1230 P____________P AL021872 21.0500 -53.7576 HU 70 1 20.7500 -54.0000 MH 125 8 302
1872233N14334 1872 17 NA NA NOT_NAMED 1872-08-26 00:00:00 TS 21.1667 -54.2000 70 hurdat_atl main 1232 1207 O____________O hurdat_atl AL021872 21.2000 -54.2000 HU 70 1 21.1000 -54.2000 MH 120 8 307
1872233N14334 1872 17 NA NA NOT_NAMED 1872-08-26 03:00:00 TS 21.4115 -54.4885 main 1207 1193 P____________P AL021872 21.3923 -54.5576 HU 70 1 21.4499 -54.3502 MH 110 7 313
1872233N14334 1872 17 NA NA NOT_NAMED 1872-08-26 06:00:00 TS 21.6667 -54.7667 70 hurdat_atl main 1186 1163 O____________O hurdat_atl AL021872 21.6000 -54.9000 HU 70 1 21.8000 -54.5000 MH 100 8 312
1872233N14334 1872 17 NA NA NOT_NAMED 1872-08-26 09:00:00 TS 21.9267 -55.1099 main 1163 1141 P____________P AL021872 21.8151 -55.3149 HU 70 1 22.1500 -54.7000 MH 100 8 309
1872233N14334 1872 17 NA NA NOT_NAMED 1872-08-26 12:00:00 TS 22.1667 -55.4333 70 hurdat_atl main 1144 1129 O____________O hurdat_atl AL021872 22.0000 -55.7000 HU 70 1 22.5000 -54.9000 MH 100 7 310
1872233N14334 1872 17 NA NA NOT_NAMED 1872-08-26 15:00:00 TS 22.3523 -55.6553 main 1124 1109 P____________P AL021872 22.0923 -55.9579 HU 70 1 22.8724 -55.0501 MH 100 5 312
1872233N14334 1872 17 NA NA NOT_NAMED 1872-08-26 18:00:00 TS 22.5333 -55.8667 70 hurdat_atl main 1109 1099 O____________O hurdat_atl AL021872 22.2000 -56.2000 HU 70 1 23.2000 -55.2000 MH 100 6 312
1872233N14334 1872 17 NA NA NOT_NAMED 1872-08-26 21:00:00 TS 22.7642 -56.1491 main 1103 1080 P____________P AL021872 22.4350 -56.5349 HU 70 1 23.4224 -55.3777 MH 100 7 310
1872233N14334 1872 17 NA NA NOT_NAMED 1872-08-27 00:00:00 TS 23.0000 -56.4667 70 hurdat_atl main 1076 1060 O____________O hurdat_atl AL021872 22.7000 -56.9000 HU 70 1 23.6000 -55.6000 MH 100 7 306
1872233N14334 1872 17 NA NA NOT_NAMED 1872-08-27 03:00:00 TS 23.1924 -56.7927 main 1060 1038 P____________P AL021872 22.8924 -57.2428 HU 70 1 23.7926 -55.8925 MH 100 7 303
1872233N14334 1872 17 NA NA NOT_NAMED 1872-08-27 06:00:00 TS 23.4000 -57.1333 70 hurdat_atl main 1044 1027 O____________O hurdat_atl AL021872 23.1000 -57.6000 HU 70 1 24.0000 -56.2000 MH 100 8 308
1872233N14334 1872 17 NA NA NOT_NAMED 1872-08-27 09:00:00 TS 23.6884 -57.4932 main 1027 1015 P____________P AL021872 23.4076 -58.0147 HU 70 1 24.2499 -56.4501 MH 100 9 312
1872233N14334 1872 17 NA NA NOT_NAMED 1872-08-27 12:00:00 TS 23.9667 -57.8333 70 hurdat_atl main 1022 1004 O____________O hurdat_atl AL021872 23.7000 -58.4000 HU 70 1 24.5000 -56.7000 MH 100 7 308
1872233N14334 1872 17 NA NA NOT_NAMED 1872-08-27 15:00:00 TS 24.1382 -58.1128 main 1004 995 P____________P AL021872 23.8573 -58.6729 HU 70 1 24.7000 -56.9927 MH 100 6 304
1872233N14334 1872 17 NA NA NOT_NAMED 1872-08-27 18:00:00 TS 24.3000 -58.3667 70 hurdat_atl main 995 994 O____________O hurdat_atl AL021872 24.0000 -58.9000 HU 70 1 24.9000 -57.3000 MH 100 6 310
1872233N14334 1872 17 NA NA NOT_NAMED 1872-08-27 21:00:00 TS 24.5399 -58.6309 main 994 994 P____________P AL021872 24.2349 -59.1426 HU 75 1 25.1500 -57.6075 MH 100 7 316
1872233N14334 1872 17 NA NA NOT_NAMED 1872-08-28 00:00:00 TS 24.8000 -58.9000 80 hurdat_atl main 995 989 O____________O hurdat_atl AL021872 24.5000 -59.4000 HU 80 1 25.4000 -57.9000 MH 100 7 314
1872233N14334 1872 17 NA NA NOT_NAMED 1872-08-28 03:00:00 TS 25.0182 -59.1687 main 990 990 P____________P AL021872 24.7274 -59.6779 HU 80 1 25.5999 -58.1503 MH 100 7 312
1872233N14334 1872 17 NA NA NOT_NAMED 1872-08-28 06:00:00 TS 25.2667 -59.4667 80 hurdat_atl main 995 988 O____________O hurdat_atl AL021872 25.0000 -60.0000 HU 80 1 25.8000 -58.4000 MH 100 8 314
1872233N14334 1872 17 NA NA NOT_NAMED 1872-08-28 09:00:00 TS 25.5917 -59.8308 main 1002 996 P____________P AL021872 25.3626 -60.3999 HU 80 1 26.0500 -58.6925 MH 97 10 317
1872233N14334 1872 17 NA NA NOT_NAMED 1872-08-28 12:00:00 TS 25.9667 -60.2000 80 hurdat_atl main 1014 1009 O____________O hurdat_atl AL021872 25.8000 -60.8000 HU 80 1 26.3000 -59.0000 HU 95 10 321
1872233N14334 1872 17 NA NA NOT_NAMED 1872-08-28 15:00:00 TS 26.3541 -60.5202 main 1036 1031 P____________P AL021872 26.2774 -61.1302 HU 80 1 26.5074 -59.3002 HU 95 10 326
1872233N14334 1872 17 NA NA NOT_NAMED 1872-08-28 18:00:00 TS 26.7667 -60.8000 80 hurdat_atl main 1060 1060 O____________O hurdat_atl AL021872 26.8000 -61.4000 HU 80 1 26.7000 -59.6000 HU 95 10 331
1872233N14334 1872 17 NA NA NOT_NAMED 1872-08-28 21:00:00 TS 27.1999 -61.0534 main 1086 1086 P____________P AL021872 27.3499 -61.6301 HU 85 2 26.8999 -59.9001 HU 95 10 334
1872233N14334 1872 17 NA NA NOT_NAMED 1872-08-29 00:00:00 TS 27.6333 -61.2667 90 hurdat_atl main 1118 1118 O____________O hurdat_atl AL021872 27.9000 -61.8000 HU 90 2 27.1000 -60.2000 HU 95 9 337
1872233N14334 1872 17 NA NA NOT_NAMED 1872-08-29 03:00:00 TS 28.0308 -61.4436 main 1155 1155 P____________P AL021872 28.3999 -61.9154 HU 90 2 27.2924 -60.5002 HU 92 9 340
1872233N14334 1872 17 NA NA NOT_NAMED 1872-08-29 06:00:00 TS 28.4333 -61.6000 90 hurdat_atl main 1189 1189 O____________O hurdat_atl AL021872 28.9000 -62.0000 HU 90 2 27.5000 -60.8000 HU 90 9 340
1872233N14334 1872 17 NA NA NOT_NAMED 1872-08-29 09:00:00 TS 28.8859 -61.7915 main 1235 1235 P____________P AL021872 29.4575 -62.1148 HU 90 2 27.7426 -61.1448 HU 90 10 342
1872233N14334 1872 17 NA NA NOT_NAMED 1872-08-29 12:00:00 TS 29.3333 -61.9333 90 hurdat_atl main 1274 1274 O____________O hurdat_atl AL021872 30.0000 -62.2000 HU 90 2 28.0000 -61.4000 HU 90 975 9 350
1872233N14334 1872 17 NA NA NOT_NAMED 1872-08-29 15:00:00 TS 29.7241 -61.9537 main 1314 1314 P____________P AL021872 30.4575 -62.2078 HU 90 2 28.2574 -61.4453 HU 90 9 358
1872233N14334 1872 17 NA NA NOT_NAMED 1872-08-29 18:00:00 TS 30.2455 -61.9818 90 hurdat_atl main 1367 1360 O____________O hurdat_atl AL021872 30.9000 -62.2000 HU 90 2 28.5000 -61.4000 HU 90 11 354
1872233N14334 1872 17 NA NA NOT_NAMED 1872-08-29 21:00:00 TS 30.8480 -62.0887 main 1360 1317 P____________P AL021872 31.3850 -62.2572 HU 90 2 28.7100 -61.3848 HU 90 13 352
1872233N14334 1872 17 NA NA NOT_NAMED 1872-08-30 00:00:00 TS 31.5667 -62.2000 90 hurdat_atl main 1312 1238 O____________O hurdat_atl AL021872 31.9000 -62.3000 HU 90 2 28.9000 -61.4000 HU 90 16 354
1872233N14334 1872 17 NA NA NOT_NAMED 1872-08-30 03:00:00 TS 32.4125 -62.2725 main 1238 1187 P_____________ AL021872 32.4125 -62.2725 HU 90 2 HU 14 0
1872233N14334 1872 17 NA NA NOT_NAMED 1872-08-30 06:00:00 TS 33.0000 -62.2000 90 hurdat_atl main 1187 1125 O_____________ hurdat_atl AL021872 33.0000 -62.2000 HU 90 2 13 6
1872233N14334 1872 17 NA NA NOT_NAMED 1872-08-30 09:00:00 TS 33.7425 -62.1003 main 1125 1041 P_____________ AL021872 33.7425 -62.1003 HU 90 2 15 6
1872233N14334 1872 17 NA NA NOT_NAMED 1872-08-30 12:00:00 TS 34.5000 -62.0000 90 hurdat_atl main 1041 976 O_____________ hurdat_atl AL021872 34.5000 -62.0000 HU 90 2 14 5
1872233N14334 1872 17 NA NA NOT_NAMED 1872-08-30 15:00:00 TS 35.1150 -61.9495 main 979 915 P_____________ AL021872 35.1150 -61.9495 HU 90 2 12 4
1872233N14334 1872 17 NA NA NOT_NAMED 1872-08-30 18:00:00 TS 35.7000 -61.9000 90 hurdat_atl main 915 854 O_____________ hurdat_atl AL021872 35.7000 -61.9000 HU 90 2 12 4
1872233N14334 1872 17 NA NA NOT_NAMED 1872-08-30 21:00:00 TS 36.3424 -61.8295 main 854 784 P_____________ AL021872 36.3424 -61.8295 HU 90 2 13 7
1872233N14334 1872 17 NA NA NOT_NAMED 1872-08-31 00:00:00 TS 37.0000 -61.7000 90 hurdat_atl main 784 730 O_____________ hurdat_atl AL021872 37.0000 -61.7000 HU 90 2 13 12
1872233N14334 1872 17 NA NA NOT_NAMED 1872-08-31 03:00:00 TS 37.6574 -61.4873 main 720 672 P_____________ AL021872 37.6574 -61.4873 HU 90 2 14 17
1872233N14334 1872 17 NA NA NOT_NAMED 1872-08-31 06:00:00 TS 38.3000 -61.2000 90 hurdat_atl main 672 629 O_____________ hurdat_atl AL021872 38.3000 -61.2000 HU 90 2 13 20
1872233N14334 1872 17 NA NA NOT_NAMED 1872-08-31 09:00:00 TS 38.9222 -60.8942 main 629 596 P_____________ AL021872 38.9222 -60.8942 HU 85 2 13 24
1872233N14334 1872 17 NA NA NOT_NAMED 1872-08-31 12:00:00 TS 39.5000 -60.5000 80 hurdat_atl main 596 567 O_____________ hurdat_atl AL021872 39.5000 -60.5000 HU 80 1 13 32
1872233N14334 1872 17 NA NA NOT_NAMED 1872-08-31 15:00:00 TS 39.9844 -60.0225 main 570 540 P_____________ AL021872 39.9844 -60.0225 HU 80 1 13 40
1872233N14334 1872 17 NA NA NOT_NAMED 1872-08-31 18:00:00 TS 40.5000 -59.4000 80 hurdat_atl main 540 488 O_____________ hurdat_atl AL021872 40.5000 -59.4000 HU 80 1 16 43
1872233N14334 1872 17 NA NA NOT_NAMED 1872-08-31 21:00:00 TS 41.1935 -58.5599 main 488 457 P_____________ AL021872 41.1935 -58.5599 HU 80 1 19 42
1872233N14334 1872 17 NA NA NOT_NAMED 1872-09-01 00:00:00 TS 41.9000 -57.7000 80 hurdat_atl main 457 442 O_____________ hurdat_atl AL021872 41.9000 -57.7000 HU 80 1 17 42
1872233N14334 1872 17 NA NA NOT_NAMED 1872-09-01 03:00:00 TS 42.4645 -57.0158 main 438 421 P_____________ AL021872 42.4645 -57.0158 HU 80 1 14 39
1872233N14334 1872 17 NA NA NOT_NAMED 1872-09-01 06:00:00 TS 43.0000 -56.5000 80 hurdat_atl main 421 356 O_____________ hurdat_atl AL021872 43.0000 -56.5000 HU 80 1 13 30
1872233N14334 1872 17 NA NA NOT_NAMED 1872-09-01 09:00:00 TS 43.6296 -56.0878 main 356 289 P_____________ AL021872 43.6296 -56.0878 HU 75 1 13 20
1872233N14334 1872 17 NA NA NOT_NAMED 1872-09-01 12:00:00 TS 44.2000 -55.9000 70 hurdat_atl main 289 244 O_____________ hurdat_atl AL021872 44.2000 -55.9000 HU 70 1 10 5
1872233N14334 1872 17 NA NA NOT_NAMED 1872-09-01 15:00:00 TS 44.6023 -55.9588 main 245 214 P_____________ AL021872 44.6023 -55.9588 HU 70 1 7 343
1872233N14334 1872 17 NA NA NOT_NAMED 1872-09-01 18:00:00 TS 44.9000 -56.2000 70 hurdat_atl main 214 185 O_____________ hurdat_atl AL021872 44.9000 -56.2000 HU 70 1 7 328
1872233N14334 1872 17 NA NA NOT_NAMED 1872-09-01 21:00:00 TS 45.1799 -56.4625 main 188 173 P_____________ AL021872 45.1799 -56.4625 HU 70 1 7 320
1872233N14334 1872 17 NA NA NOT_NAMED 1872-09-02 00:00:00 ET 45.4000 -56.8000 70 hurdat_atl main 176 171 O_____________ hurdat_atl AL021872 45.4000 -56.8000 EX 70 -4 6 305
1872233N14334 1872 17 NA NA NOT_NAMED 1872-09-02 03:00:00 ET 45.5274 -57.1788 main 184 178 P_____________ AL021872 45.5274 -57.1788 EX 70 -4 6 298
1872233N14334 1872 17 NA NA NOT_NAMED 1872-09-02 06:00:00 ET 45.7000 -57.6000 70 hurdat_atl main 178 139 O_____________ hurdat_atl AL021872 45.7000 -57.6000 EX 70 -4 8 311
1872233N14334 1872 17 NA NA NOT_NAMED 1872-09-02 09:00:00 ET 46.0472 -58.0279 main 139 104 P_____________ AL021872 46.0472 -58.0279 EX 65 -4 10 322
1872233N14334 1872 17 NA NA NOT_NAMED 1872-09-02 12:00:00 ET 46.5000 -58.5000 60 hurdat_atl main 104 66 O_____________ hurdat_atl AL021872 46.5000 -58.5000 EX 60 -4 12 324
1872233N14334 1872 17 NA NA NOT_NAMED 1872-09-02 15:00:00 ET 46.9931 -59.0303 main 66 23 P_____________ AL021872 46.9931 -59.0303 EX 55 -4 12 323
1872233N14334 1872 17 NA NA NOT_NAMED 1872-09-02 18:00:00 ET 47.5000 -59.6000 50 hurdat_atl main 25 O_____________ hurdat_atl AL021872 47.5000 -59.6000 EX 50 -4 13 323

IBTrACS Databaseについて

本データベースは、米国NOAAが公開する1842年以降の世界の熱帯低気圧のベストトラックデータアーカイブInternational Best Track Archive for Climate Stewardship (IBTrACS)を、ウェブで閲覧しやすい形式に変換したものです。

最終更新日:2021-10-21